Latest Coastal Weather Observations for Bellambi

IDN60701

Issued at 10:51 am EST Wednesday 26 July 2017 (issued every 10 minutes, with the page automatically refreshed every 10 minutes)

About coastal observations | Map of coastal stations | Coastal observations for NSW | Marine services | Other Formats
Station Details ID: 068228 Name: BELLAMBI AWS Lat: -34.37 Lon: 150.93 Height: 10.0 m
Data from the previous 72 hours. | See also: Recent months at Bellambi
Date/Time
EST
Temp
°C
Wind Pressure Rain since
9am
mm
Weather Cloud Vis
km
Sea
Height
m
Swell
Dir  Spd
kts
Gust
kts
hPa Trend Height
m
Period
s
Dir
26/10:49am 18.7 WSW 15 35 - - 0.0 - - - - - - -
26/10:37am 18.6 WSW 15 25 - - 0.0 - - - - - - -
26/10:30am 18.6 WSW 14 25 - - 0.0 - - - - - - -
26/10:03am 18.2 WSW 17 27 - - 0.0 - - - - - - -
26/10:00am 18.1 WSW 18 27 - - 0.0 - - - - - - -
26/09:58am 18.0 WSW 17 27 - - 0.0 - - - - - - -
26/09:44am 18.1 W 14 25 - - 0.0 - - - - - - -
26/09:30am 17.9 W 14 21 - - 0.0 - - - - - - -
26/09:00am 17.4 W 16 26 - - 0.0 - - - - - - -
26/08:30am 17.0 WNW 20 30 - - 0.0 - - - - - - -
26/08:00am 16.6 WNW 20 35 - - 0.0 - - - - - - -
26/07:30am 16.3 WNW 26 43 - - 0.0 - - - - - - -
26/07:00am 16.3 WNW 26 43 - - 0.0 - - - - - - -
26/06:30am 15.9 WNW 25 40 - - 0.0 - - - - - - -
26/06:00am 15.9 WNW 26 37 - - 0.0 - - - - - - -
26/05:30am 16.0 WNW 27 43 - - 0.0 - - - - - - -
26/05:00am 16.2 WNW 25 38 - - 0.0 - - - - - - -
26/04:30am 17.0 W 25 41 - - 0.0 - - - - - - -
26/04:00am 17.9 WNW 24 39 - - 0.0 - - - - - - -
26/03:30am 17.7 WNW 19 33 - - 0.0 - - - - - - -
26/03:12am 17.6 WNW 15 27 - - 0.0 - - - - - - -
26/03:00am 17.4 WNW 13 23 - - 0.0 - - - - - - -
26/02:45am 17.8 WNW 15 27 - - 0.0 - - - - - - -
26/02:30am 16.0 WNW 11 15 - - 0.0 - - - - - - -
26/02:00am 15.7 WSW 6 12 - - 0.0 - - - - - - -
26/01:30am 14.4 CALM 0 3 - - 0.0 - - - - - - -
26/01:00am 14.7 NW 8 11 - - 0.0 - - - - - - -
26/12:30am 15.6 N 12 15 - - 0.0 - - - - - - -
26/12:00am 15.5 NNE 7 10 - - 0.0 - - - - - - -
 
Date/Time
EST
Temp
°C
Wind Pressure Rain since
9am
mm
Weather Cloud Vis
km
Sea
Height
m
Swell
Dir  Spd
kts
Gust
kts
hPa Trend Height
m
Period
s
Dir
25/11:30pm 15.5 N 9 12 - - 0.0 - - - - - - -
25/11:00pm 15.5 NNW 10 12 - - 0.0 - - - - - - -
25/10:30pm 15.3 NNW 10 12 - - 0.0 - - - - - - -
25/10:00pm 15.4 NNW 9 11 - - 0.0 - - - - - - -
25/09:30pm 14.2 NW 8 10 - - 0.0 - - - - - - -
25/09:00pm 13.9 NW 7 8 - - 0.0 - - - - - - -
25/08:30pm 13.1 NW 6 8 - - 0.0 - - - - - - -
25/08:00pm 13.7 NNW 2 4 - - 0.0 - - - - - - -
25/07:30pm 14.0 N 1 3 - - 0.0 - - - - - - -
25/07:00pm 14.1 NW 3 5 - - 0.0 - - - - - - -
25/06:30pm 14.5 WNW 4 5 - - 0.0 - - - - - - -
25/06:00pm 15.3 NW 2 4 - - 0.0 - - - - - - -
25/05:30pm 16.3 WSW 5 5 - - 0.0 - - - - - - -
25/05:00pm 18.1 W 4 5 - - 0.0 - - - - - - -
25/04:30pm 19.4 SW 7 10 - - 0.0 - - - - - - -
25/04:00pm 20.5 WSW 5 9 - - 0.0 - - - - - - -
25/03:30pm 20.7 WSW 8 11 - - 0.0 - - - - - - -
25/03:00pm 20.8 WSW 6 13 - - 0.0 - - - - - - -
25/02:30pm 20.7 W 8 15 - - 0.0 - - - - - - -
25/02:00pm 20.4 WSW 6 9 - - 0.0 - - - - - - -
25/01:30pm 20.1 W 11 17 - - 0.0 - - - - - - -
25/01:00pm 19.6 W 10 16 - - 0.0 - - - - - - -
25/12:30pm 19.3 WSW 10 17 - - 0.0 - Partly cloudy - - - - -
25/12:00pm 18.8 WSW 9 15 - - 0.0 - - - - - - -
25/11:30am 18.2 WSW 9 17 - - 0.0 - - - - - - -
25/11:00am 17.7 WSW 8 12 - - 0.0 - - - - - - -
25/10:30am 16.8 NW 5 8 - - 0.0 - - - - - - -
25/10:00am 15.8 NW 8 11 - - 0.0 - - - - - - -
25/09:30am 14.5 NW 7 12 - - 0.0 - - - - - - -
25/09:00am 13.6 NW 4 6 - - 0.0 - - - - - - -
25/08:30am 12.5 WNW 5 8 - - 0.0 - - - - - - -
25/08:00am 11.7 NW 9 11 - - 0.0 - - - - - - -
25/07:30am 10.5 NW 10 12 - - 0.0 - - - - - - -
25/07:00am 9.5 NW 9 12 - - 0.0 - - - - - - -
25/06:30am 9.6 NW 8 10 - - 0.0 - - - - - - -
25/06:00am 10.3 NW 9 11 - - 0.0 - - - - - - -
25/05:30am 10.1 NW 9 11 - - 0.0 - - - - - - -
25/05:00am 10.7 NW 8 10 - - 0.0 - - - - - - -
25/04:30am 12.0 W 9 15 - - 0.0 - - - - - - -
25/04:00am 11.4 ENE 2 4 - - 0.0 - - - - - - -
25/03:30am 10.1 WNW 5 6 - - 0.0 - - - - - - -
25/03:00am 9.6 NW 6 8 - - 0.0 - - - - - - -
25/02:30am 10.8 NW 7 8 - - 0.0 - - - - - - -
25/02:00am 11.4 W 5 7 - - 0.0 - - - - - - -
25/01:30am 11.9 WSW 10 19 - - 0.0 - - - - - - -
25/01:00am 12.2 W 13 18 - - 0.0 - - - - - - -
25/12:30am 12.1 W 11 17 - - 0.0 - - - - - - -
25/12:00am 12.3 W 10 15 - - 0.0 - - - - - - -
 
Date/Time
EST
Temp
°C
Wind Pressure Rain since
9am
mm
Weather Cloud Vis
km
Sea
Height
m
Swell
Dir  Spd
kts
Gust
kts
hPa Trend Height
m
Period
s
Dir
24/11:30pm 12.6 WNW 13 19 - - 0.0 - - - - - - -
24/11:00pm 12.9 WNW 15 23 - - 0.0 - - - - - - -
24/10:30pm 13.2 WNW 15 21 - - 0.0 - - - - - - -
24/10:20pm 13.5 W 15 26 - - 0.0 - - - - - - -
24/10:00pm 13.4 W 13 23 - - 0.0 - - - - - - -
24/09:30pm 13.8 W 15 23 - - 0.0 - - - - - - -
24/09:00pm 14.1 W 15 26 - - 0.0 - - - - - - -
24/08:35pm 14.2 W 15 25 - - 0.0 - - - - - - -
24/08:30pm 14.2 W 14 23 - - 0.0 - - - - - - -
24/08:00pm 13.6 SW 6 10 - - 0.0 - - - - - - -
24/07:30pm 14.3 S 5 8 - - 0.0 - - - - - - -
24/07:00pm 14.0 E 3 5 - - 0.0 - - - - - - -
24/06:30pm 15.0 W 7 11 - - 0.0 - - - - - - -
24/06:00pm 15.7 W 9 13 - - 0.0 - - - - - - -
24/05:30pm 15.8 W 7 11 - - 0.0 - - - - - - -
24/05:00pm 16.3 W 6 10 - - 0.0 - - - - - - -
24/04:30pm 17.8 WSW 7 10 - - 0.0 - - - - - - -
24/04:00pm 18.4 W 10 15 - - 0.0 - - - - - - -
24/03:30pm 18.9 W 11 16 - - 0.0 - - - - - - -
24/03:00pm 19.4 W 10 17 - - 0.0 - - - - - - -
24/02:30pm 19.1 SSW 11 14 - - 0.0 - Partly cloudy - - - - -
24/02:00pm 19.4 SW 11 19 - - 0.0 - - - - - - -
24/01:30pm 19.4 SW 11 15 - - 0.0 - - - - - - -
24/01:00pm 19.1 SSW 10 14 - - 0.0 - - - - - - -
24/12:30pm 18.8 SW 13 18 - - 0.0 - - - - - - -
24/12:00pm 18.6 WSW 8 13 - - 0.0 - - - - - - -
24/11:30am 18.5 WSW 8 12 - - 0.0 - - - - - - -
24/11:00am 17.9 WSW 8 15 - - 0.0 - - - - - - -
24/10:30am 17.1 WSW 10 19 - - 0.0 - - - - - - -
24/10:00am 16.7 WSW 7 12 - - 0.0 - - - - - - -
24/09:30am 15.9 WSW 8 14 - - 0.0 - - - - - - -
24/09:00am 15.0 SW 9 15 - - 0.0 - - - - - - -
24/08:30am 14.0 WSW 5 8 - - 0.0 - - - - - - -
24/08:00am 12.4 NW 7 9 - - 0.0 - - - - - - -
24/07:30am 11.6 NW 6 8 - - 0.0 - - - - - - -
24/07:00am 11.0 WNW 6 7 - - 0.0 - - - - - - -
24/06:30am 11.8 WSW 4 5 - - 0.0 - - - - - - -
24/06:00am 12.6 WNW 6 7 - - 0.0 - - - - - - -
24/05:30am 13.3 WSW 5 7 - - 0.0 - - - - - - -
24/05:00am 13.0 CALM 0 4 - - 0.0 - - - - - - -
24/04:30am 11.7 NW 3 5 - - 0.0 - - - - - - -
24/04:00am 13.7 WSW 2 4 - - 0.0 - - - - - - -
24/03:30am 13.8 WNW 4 8 - - 0.0 - - - - - - -
24/03:00am 14.4 WSW 6 14 - - 0.0 - - - - - - -
24/02:30am 14.6 SE 1 3 - - 0.0 - - - - - - -
24/02:00am 14.0 SSW 4 5 - - 0.0 - - - - - - -
24/01:30am 13.9 CALM 0 4 - - 0.0 - - - - - - -
24/01:00am 14.8 CALM 0 0 - - 0.0 - - - - - - -
24/12:30am 14.6 W 5 6 - - 0.0 - - - - - - -
24/12:00am 15.7 W 7 9 - - 0.0 - - - - - - -
 
Date/Time
EST
Temp
°C
Wind Pressure Rain since
9am
mm
Weather Cloud Vis
km
Sea
Height
m
Swell
Dir  Spd
kts
Gust
kts
hPa Trend Height
m
Period
s
Dir
23/11:30pm 16.5 WSW 9 12 - - 0.0 - - - - - - -
23/11:00pm 17.1 WSW 9 24 - - 0.0 - - - - - - -
23/10:30pm 17.5 WSW 10 20 - - 0.0 - - - - - - -
23/10:00pm 17.4 WNW 10 17 - - 0.0 - - - - - - -
23/09:31pm 17.4 WNW 15 26 - - 0.0 - - - - - - -
23/09:30pm 17.5 WNW 14 26 - - 0.0 - - - - - - -
23/09:00pm 17.4 WNW 13 19 - - 0.0 - - - - - - -
23/08:30pm 17.2 WNW 7 15 - - 0.0 - - - - - - -
23/08:00pm 17.7 NW 3 8 - - 0.0 - - - - - - -
23/07:30pm 17.7 WNW 6 11 - - 0.0 - - - - - - -
23/07:00pm 16.9 NNW 2 6 - - 0.0 - - - - - - -
23/06:30pm 17.0 NW 4 8 - - 0.0 - - - - - - -
23/06:00pm 16.6 NW 2 6 - - 0.0 - - - - - - -
23/05:30pm 18.0 NNW 6 9 - - 0.0 - - - - - - -
23/05:00pm 19.2 NNW 7 10 - - 0.0 - - - - - - -
23/04:30pm 19.8 N 6 9 - - 0.0 - - - - - - -
23/04:00pm 21.2 NNW 7 13 - - 0.0 - - - - - - -
23/03:30pm 20.9 NNE 6 9 - - 0.0 - - - - - - -
23/03:00pm 21.1 NNW 10 14 - - 0.0 - - - - - - -
23/02:30pm 21.9 NW 6 12 - - 0.0 - - - - - - -
23/02:00pm 21.4 NW 12 17 - - 0.0 - - - - - - -
23/01:30pm 21.2 NW 11 17 - - 0.0 - - - - - - -
23/01:00pm 20.8 NW 11 20 - - 0.0 - - - - - - -
23/12:30pm 19.6 WNW 13 24 - - 0.0 - - - - - - -
23/12:00pm 18.3 WNW 11 20 - - 0.0 - Partly cloudy - - - - -
23/11:30am 18.7 SSW 7 13 - - 0.0 - - - - - - -
23/11:00am 19.0 E 9 18 - - 0.0 - - - - - - -

Other Formats:

Comma delimited format used in spreadsheet applications
http://www.bom.gov.au/fwo/IDN60701/IDN60701.94749.axf

JavaScript Object Notation format (JSON) in row-major order
http://www.bom.gov.au/fwo/IDN60701/IDN60701.94749.json